createdAt,value
2023-04-25T00:00:43.477Z,824.00
2023-04-25T00:01:43.559Z,826.00
2023-04-25T00:02:43.795Z,824.00
2023-04-25T00:03:43.885Z,824.00
2023-04-25T00:04:44.169Z,827.00
2023-04-25T00:05:43.970Z,825.00
2023-04-25T00:06:43.880Z,828.00
2023-04-25T00:07:43.927Z,829.00
2023-04-25T00:08:43.996Z,829.00
2023-04-25T00:09:44.068Z,828.00
2023-04-25T00:10:44.145Z,827.00
2023-04-25T00:11:44.213Z,828.00
2023-04-25T00:12:44.275Z,828.00
2023-04-25T00:13:44.319Z,826.00
2023-04-25T00:14:44.379Z,824.00
2023-04-25T00:15:44.466Z,821.00
2023-04-25T00:16:44.495Z,823.00
2023-04-25T00:17:44.569Z,826.00
2023-04-25T00:18:44.634Z,824.00
2023-04-25T00:19:44.700Z,824.00
2023-04-25T00:20:44.978Z,826.00
2023-04-25T00:21:44.808Z,824.00
2023-04-25T00:22:44.872Z,824.00
2023-04-25T00:23:44.938Z,828.00
2023-04-25T00:24:45.012Z,830.00
2023-04-25T00:25:45.082Z,831.00
2023-04-25T00:26:45.122Z,831.00
2023-04-25T00:27:45.186Z,829.00
2023-04-25T00:28:45.230Z,828.00
2023-04-25T00:29:45.304Z,823.00
2023-04-25T00:30:45.375Z,822.00
2023-04-25T00:31:45.444Z,821.00
2023-04-25T00:32:45.555Z,820.00
2023-04-25T00:33:45.525Z,818.00
2023-04-25T00:34:45.647Z,819.00
2023-04-25T00:35:45.661Z,821.00
2023-04-25T00:36:45.683Z,822.00
2023-04-25T00:37:45.762Z,823.00
2023-04-25T00:38:45.817Z,822.00
2023-04-25T00:39:45.888Z,822.00
2023-04-25T00:40:45.963Z,820.00
2023-04-25T00:41:46.033Z,818.00
2023-04-25T00:42:46.031Z,821.00
2023-04-25T00:43:46.132Z,820.00
2023-04-25T00:44:46.193Z,822.00
2023-04-25T00:45:46.210Z,824.00
2023-04-25T00:46:46.301Z,826.00
2023-04-25T00:47:46.403Z,824.00
2023-04-25T00:48:46.546Z,821.00
2023-04-25T00:49:46.518Z,820.00
2023-04-25T00:50:46.518Z,820.00
2023-04-25T00:51:46.597Z,818.00
2023-04-25T00:52:46.703Z,818.00
2023-04-25T00:53:46.740Z,819.00
2023-04-25T00:54:46.786Z,818.00
2023-04-25T00:55:46.852Z,819.00
2023-04-25T00:56:46.867Z,819.00
2023-04-25T00:57:46.945Z,815.00
2023-04-25T00:58:46.972Z,815.00
2023-04-25T00:59:47.075Z,814.00
2023-04-25T01:00:47.136Z,815.00
2023-04-25T01:01:47.233Z,820.00
2023-04-25T01:02:47.348Z,821.00
2023-04-25T01:03:47.340Z,824.00
2023-04-25T01:04:47.348Z,824.00
2023-04-25T01:05:47.418Z,822.00
2023-04-25T01:06:47.473Z,821.00
2023-04-25T01:07:47.547Z,821.00
2023-04-25T01:08:47.583Z,816.00
2023-04-25T01:09:48.018Z,817.00
2023-04-25T01:10:47.814Z,816.00
2023-04-25T01:11:47.762Z,818.00
2023-04-25T01:12:47.830Z,819.00
2023-04-25T01:13:47.952Z,816.00
2023-04-25T01:14:47.977Z,814.00
2023-04-25T01:15:47.995Z,811.00
2023-04-25T01:16:48.089Z,813.00
2023-04-25T01:17:48.230Z,813.00
2023-04-25T01:18:48.195Z,815.00
2023-04-25T01:19:48.229Z,813.00
2023-04-25T01:20:48.278Z,811.00
2023-04-25T01:21:48.329Z,811.00
2023-04-25T01:22:48.408Z,812.00
2023-04-25T01:23:48.558Z,815.00
2023-04-25T01:24:48.525Z,818.00
2023-04-25T01:25:48.590Z,815.00
2023-04-25T01:26:48.644Z,815.00
2023-04-25T01:27:48.692Z,813.00
2023-04-25T01:28:48.757Z,817.00
2023-04-25T01:29:48.805Z,817.00
2023-04-25T01:30:48.879Z,815.00
2023-04-25T01:31:48.985Z,815.00
2023-04-25T01:32:49.105Z,818.00
2023-04-25T01:33:49.360Z,819.00
2023-04-25T01:34:49.119Z,820.00
2023-04-25T01:35:49.173Z,820.00
2023-04-25T01:36:49.230Z,820.00
2023-04-25T01:37:49.285Z,817.00
2023-04-25T01:38:49.345Z,815.00
2023-04-25T01:39:49.395Z,817.00
2023-04-25T01:40:49.472Z,818.00
2023-04-25T01:41:49.503Z,820.00
2023-04-25T01:42:49.557Z,821.00
2023-04-25T01:43:49.812Z,821.00
2023-04-25T01:44:49.668Z,822.00
2023-04-25T01:45:49.773Z,822.00
2023-04-25T01:46:49.804Z,821.00
2023-04-25T01:47:50.007Z,821.00
2023-04-25T01:48:49.926Z,823.00
2023-04-25T01:49:50.021Z,824.00
2023-04-25T01:50:50.025Z,827.00
2023-04-25T01:51:50.094Z,828.00
2023-04-25T01:52:50.105Z,828.00
2023-04-25T01:53:50.375Z,824.00
2023-04-25T01:54:50.216Z,825.00
2023-04-25T01:55:50.310Z,825.00
2023-04-25T01:56:50.372Z,825.00
2023-04-25T01:57:50.388Z,823.00
2023-04-25T01:58:50.439Z,821.00
2023-04-25T01:59:50.535Z,817.00
2023-04-25T02:00:50.557Z,818.00
2023-04-25T02:01:50.720Z,821.00
2023-04-25T02:02:50.750Z,821.00
2023-04-25T02:03:50.981Z,819.00
2023-04-25T02:04:50.823Z,820.00
2023-04-25T02:05:50.852Z,821.00
2023-04-25T02:06:51.033Z,821.00
2023-04-25T02:07:50.972Z,821.00
2023-04-25T02:08:51.016Z,820.00
2023-04-25T02:09:51.089Z,821.00
2023-04-25T02:10:51.152Z,819.00
2023-04-25T02:11:51.218Z,818.00
2023-04-25T02:12:51.283Z,815.00
2023-04-25T02:13:51.592Z,814.00
2023-04-25T02:14:51.395Z,816.00
2023-04-25T02:15:51.508Z,815.00
2023-04-25T02:16:51.600Z,818.00
2023-04-25T02:17:51.582Z,819.00
2023-04-25T02:18:51.679Z,819.00
2023-04-25T02:19:51.694Z,820.00
2023-04-25T02:20:51.769Z,819.00
2023-04-25T02:21:51.817Z,819.00
2023-04-25T02:22:51.948Z,818.00
2023-04-25T02:23:52.206Z,820.00
2023-04-25T02:24:52.007Z,823.00
2023-04-25T02:25:52.059Z,822.00
2023-04-25T02:26:52.103Z,821.00
2023-04-25T02:27:52.169Z,823.00
2023-04-25T02:28:52.221Z,822.00
2023-04-25T02:29:52.294Z,823.00
2023-04-25T02:30:52.358Z,823.00
2023-04-25T02:31:52.486Z,824.00
2023-04-25T02:32:52.506Z,821.00
2023-04-25T02:33:52.810Z,822.00
2023-04-25T02:34:52.586Z,822.00
2023-04-25T02:35:52.628Z,824.00
2023-04-25T02:36:52.695Z,821.00
2023-04-25T02:37:52.726Z,821.00
2023-04-25T02:38:52.802Z,816.00
2023-04-25T02:39:52.851Z,816.00
2023-04-25T02:40:52.934Z,818.00
2023-04-25T02:41:52.936Z,819.00
2023-04-25T02:42:52.990Z,822.00
2023-04-25T02:43:53.236Z,821.00
2023-04-25T02:44:53.148Z,822.00
2023-04-25T02:45:53.145Z,821.00
2023-04-25T02:46:53.310Z,821.00
2023-04-25T02:47:53.315Z,822.00
2023-04-25T02:48:53.315Z,821.00
2023-04-25T02:49:53.361Z,819.00
2023-04-25T02:50:53.427Z,821.00
2023-04-25T02:51:53.481Z,818.00
2023-04-25T02:52:53.521Z,823.00
2023-04-25T02:53:53.627Z,828.00
2023-04-25T02:54:53.641Z,826.00
2023-04-25T02:55:53.675Z,820.00
2023-04-25T02:56:53.750Z,817.00
2023-04-25T02:57:53.787Z,812.00
2023-04-25T02:58:53.917Z,809.00
2023-04-25T02:59:53.967Z,809.00
2023-04-25T03:00:53.966Z,807.00
2023-04-25T03:01:54.561Z,807.00
2023-04-25T03:02:54.114Z,808.00
2023-04-25T03:03:54.457Z,808.00
2023-04-25T03:04:54.178Z,807.00
2023-04-25T03:05:54.218Z,808.00
2023-04-25T03:06:54.303Z,808.00
2023-04-25T03:07:54.374Z,805.00
2023-04-25T03:08:54.393Z,804.00
2023-04-25T03:09:54.452Z,803.00
2023-04-25T03:10:54.484Z,805.00
2023-04-25T03:11:54.589Z,809.00
2023-04-25T03:12:54.612Z,812.00
2023-04-25T03:13:54.629Z,812.00
2023-04-25T03:14:54.699Z,811.00
2023-04-25T03:15:54.744Z,815.00
2023-04-25T03:16:54.920Z,814.00
2023-04-25T03:17:54.888Z,817.00
2023-04-25T03:18:54.924Z,816.00
2023-04-25T03:19:54.946Z,816.00
2023-04-25T03:20:55.013Z,815.00
2023-04-25T03:21:55.085Z,815.00
2023-04-25T03:22:55.173Z,816.00
2023-04-25T03:23:55.191Z,815.00
2023-04-25T03:24:55.245Z,813.00
2023-04-25T03:25:55.267Z,814.00
2023-04-25T03:26:55.386Z,817.00
2023-04-25T03:27:57.063Z,818.00
2023-04-25T03:28:55.432Z,819.00
2023-04-25T03:29:55.490Z,818.00
2023-04-25T03:30:55.556Z,817.00
2023-04-25T03:31:56.124Z,816.00
2023-04-25T03:32:55.731Z,815.00
2023-04-25T03:33:55.690Z,813.00
2023-04-25T03:34:55.787Z,811.00
2023-04-25T03:35:55.870Z,811.00
2023-04-25T03:36:55.883Z,811.00
2023-04-25T03:37:55.961Z,811.00
2023-04-25T03:38:55.966Z,810.00
2023-04-25T03:39:56.060Z,813.00
2023-04-25T03:40:56.100Z,815.00
2023-04-25T03:41:56.209Z,815.00
2023-04-25T03:42:56.199Z,812.00
2023-04-25T03:43:56.253Z,812.00
2023-04-25T03:44:56.314Z,813.00
2023-04-25T03:45:56.357Z,812.00
2023-04-25T03:46:56.424Z,812.00
2023-04-25T03:47:56.607Z,811.00
2023-04-25T03:48:56.552Z,810.00
2023-04-25T03:49:56.590Z,809.00
2023-04-25T03:50:56.660Z,810.00
2023-04-25T03:51:56.731Z,812.00
2023-04-25T03:52:56.738Z,810.00
2023-04-25T03:53:56.805Z,811.00
2023-04-25T03:54:56.848Z,811.00
2023-04-25T03:55:56.904Z,812.00
2023-04-25T03:56:56.975Z,815.00
2023-04-25T03:57:57.001Z,814.00
2023-04-25T03:58:57.056Z,816.00
2023-04-25T03:59:57.124Z,816.00
2023-04-25T04:00:57.172Z,810.00
2023-04-25T04:01:57.269Z,810.00
2023-04-25T04:02:57.433Z,811.00
2023-04-25T04:03:57.815Z,810.00
2023-04-25T04:04:57.791Z,811.00
2023-04-25T04:05:57.489Z,813.00
2023-04-25T04:06:57.543Z,814.00
2023-04-25T04:07:57.591Z,814.00
2023-04-25T04:08:57.686Z,815.00
2023-04-25T04:09:57.725Z,811.00
2023-04-25T04:10:57.759Z,811.00
2023-04-25T04:11:57.859Z,812.00
2023-04-25T04:12:57.932Z,811.00
2023-04-25T04:13:57.963Z,810.00
2023-04-25T04:14:58.005Z,812.00
2023-04-25T04:15:58.062Z,813.00
2023-04-25T04:16:58.100Z,812.00
2023-04-25T04:17:58.191Z,811.00
2023-04-25T04:18:58.223Z,811.00
2023-04-25T04:19:58.279Z,811.00
2023-04-25T04:20:58.326Z,807.00
2023-04-25T04:21:58.388Z,808.00
2023-04-25T04:22:58.464Z,809.00
2023-04-25T04:23:58.499Z,809.00
2023-04-25T04:24:58.571Z,811.00
2023-04-25T04:25:58.609Z,811.00
2023-04-25T04:26:58.666Z,810.00
2023-04-25T04:27:58.767Z,811.00
2023-04-25T04:28:58.989Z,814.00
2023-04-25T04:29:58.873Z,815.00
2023-04-25T04:30:58.958Z,818.00
2023-04-25T04:31:59.001Z,818.00
2023-04-25T04:32:59.108Z,817.00
2023-04-25T04:33:59.054Z,817.00
2023-04-25T04:34:59.164Z,816.00
2023-04-25T04:35:59.205Z,816.00
2023-04-25T04:36:59.244Z,815.00
2023-04-25T04:37:59.301Z,815.00
2023-04-25T04:38:59.368Z,816.00
2023-04-25T04:39:59.437Z,812.00
2023-04-25T04:40:59.475Z,810.00
2023-04-25T04:41:59.544Z,811.00
2023-04-25T04:42:59.594Z,810.00
2023-04-25T04:43:59.615Z,810.00
2023-04-25T04:44:59.719Z,808.00
2023-04-25T04:45:59.724Z,808.00
2023-04-25T04:46:59.798Z,807.00
2023-04-25T04:47:59.941Z,808.00
2023-04-25T04:48:59.931Z,808.00
2023-04-25T04:49:59.997Z,809.00
2023-04-25T04:51:00.029Z,807.00
2023-04-25T04:52:00.077Z,808.00
2023-04-25T04:53:00.138Z,809.00
2023-04-25T04:54:00.176Z,806.00
2023-04-25T04:55:00.256Z,806.00
2023-04-25T04:56:00.345Z,807.00
2023-04-25T04:57:00.353Z,808.00
2023-04-25T04:58:00.410Z,804.00
2023-04-25T04:59:00.458Z,806.00
2023-04-25T05:00:00.525Z,807.00
2023-04-25T05:01:00.589Z,808.00
2023-04-25T05:02:00.601Z,803.00
2023-04-25T05:03:00.709Z,801.00
2023-04-25T05:04:00.832Z,802.00
2023-04-25T05:05:00.814Z,802.00
2023-04-25T05:06:00.814Z,803.00
2023-04-25T05:07:00.878Z,803.00
2023-04-25T05:08:00.969Z,804.00
2023-04-25T05:09:01.004Z,803.00
2023-04-25T05:10:01.060Z,803.00
2023-04-25T05:11:01.057Z,802.00
2023-04-25T05:12:01.132Z,806.00
2023-04-25T05:13:01.200Z,809.00
2023-04-25T05:14:01.325Z,810.00
2023-04-25T05:15:01.291Z,810.00
2023-04-25T05:16:01.344Z,809.00
2023-04-25T05:17:01.400Z,808.00
2023-04-25T05:18:02.198Z,809.00
2023-04-25T05:19:01.508Z,810.00
2023-04-25T05:20:01.520Z,806.00
2023-04-25T05:21:01.578Z,808.00
2023-04-25T05:22:01.673Z,807.00
2023-04-25T05:23:01.713Z,806.00
2023-04-25T05:24:01.912Z,806.00
2023-04-25T05:25:01.809Z,809.00
2023-04-25T05:26:01.886Z,811.00
2023-04-25T05:27:02.679Z,808.00
2023-04-25T05:28:01.968Z,807.00
2023-04-25T05:29:02.022Z,806.00
2023-04-25T05:30:02.127Z,805.00
2023-04-25T05:31:02.118Z,804.00
2023-04-25T05:32:02.225Z,806.00
2023-04-25T05:33:02.720Z,807.00
2023-04-25T05:34:02.275Z,812.00
2023-04-25T05:35:02.370Z,882.00
2023-04-25T05:36:02.315Z,880.00
2023-04-25T05:37:02.351Z,889.00
2023-04-25T05:38:02.718Z,903.00
2023-04-25T05:39:02.416Z,901.00
2023-04-25T05:40:02.467Z,844.00
2023-04-25T05:41:02.669Z,812.00
2023-04-25T05:42:02.570Z,829.00
2023-04-25T05:43:02.617Z,910.00
2023-04-25T05:44:02.772Z,926.00
2023-04-25T05:45:02.674Z,1042.00
2023-04-25T05:46:03.072Z,1069.00
2023-04-25T05:47:02.741Z,1078.00
2023-04-25T05:48:03.138Z,1072.00
2023-04-25T05:49:02.782Z,1071.00
2023-04-25T05:50:02.812Z,1057.00
2023-04-25T05:51:03.639Z,1065.00
2023-04-25T05:52:02.846Z,1072.00
2023-04-25T05:53:02.863Z,1080.00
2023-04-25T05:54:02.889Z,1092.00
2023-04-25T05:55:02.902Z,1164.00
2023-04-25T05:56:02.922Z,1210.00
2023-04-25T05:57:03.114Z,1279.00
2023-04-25T05:58:02.948Z,1294.00
2023-04-25T05:59:02.964Z,1368.00
2023-04-25T06:00:02.990Z,1370.00
2023-04-25T06:01:03.041Z,1423.00
2023-04-25T06:02:03.101Z,1428.00
2023-04-25T06:03:03.273Z,1437.00
2023-04-25T06:04:03.480Z,1462.00
2023-04-25T06:05:03.384Z,1515.00
2023-04-25T06:06:03.246Z,1584.00
2023-04-25T06:07:03.131Z,1610.00
2023-04-25T06:08:03.124Z,1637.00
2023-04-25T06:09:03.148Z,1673.00
2023-04-25T06:10:04.208Z,1717.00
2023-04-25T06:11:03.163Z,1718.00
2023-04-25T06:12:03.163Z,1727.00
2023-04-25T06:13:03.194Z,1746.00
2023-04-25T06:14:03.166Z,1764.00
2023-04-25T06:15:04.781Z,1812.00
2023-04-25T06:16:04.288Z,1856.00
2023-04-25T06:17:03.162Z,1883.00
2023-04-25T06:18:03.301Z,1913.00
2023-04-25T06:19:03.131Z,1935.00
2023-04-25T06:20:04.627Z,1989.00
2023-04-25T06:21:03.132Z,2004.00
2023-04-25T06:22:03.116Z,2029.00
2023-04-25T06:23:03.150Z,2031.00
2023-04-25T06:24:03.114Z,2042.00
2023-04-25T06:25:03.108Z,2107.00
2023-04-25T06:26:03.333Z,2112.00
2023-04-25T06:27:03.093Z,2113.00
2023-04-25T06:28:03.202Z,2135.00
2023-04-25T06:29:03.076Z,2146.00
2023-04-25T06:30:03.048Z,2163.00
2023-04-25T06:31:03.089Z,2216.00
2023-04-25T06:32:03.056Z,2232.00
2023-04-25T06:33:03.111Z,2232.00
2023-04-25T06:34:03.181Z,2247.00
2023-04-25T06:35:03.029Z,2282.00
2023-04-25T06:36:03.026Z,2305.00
2023-04-25T06:37:03.025Z,2364.00
2023-04-25T06:38:03.169Z,2437.00
2023-04-25T06:39:03.014Z,2436.00
2023-04-25T06:40:03.045Z,2403.00
2023-04-25T06:41:03.003Z,2374.00
2023-04-25T06:42:03.122Z,2177.00
2023-04-25T06:43:03.150Z,2173.00
2023-04-25T06:44:02.974Z,2175.00
2023-04-25T06:45:02.980Z,2193.00
2023-04-25T06:46:03.041Z,2209.00
2023-04-25T06:47:03.076Z,2220.00
2023-04-25T06:48:02.992Z,2222.00
2023-04-25T06:49:02.943Z,2221.00
2023-04-25T06:50:02.926Z,2228.00
2023-04-25T06:51:02.945Z,2246.00
2023-04-25T06:52:02.934Z,2262.00
2023-04-25T06:53:02.924Z,2289.00
2023-04-25T06:54:02.935Z,2308.00
2023-04-25T06:55:02.921Z,2339.00
2023-04-25T06:56:03.181Z,2374.00
2023-04-25T06:57:02.868Z,2412.00
2023-04-25T06:58:02.953Z,2411.00
2023-04-25T06:59:02.896Z,2409.00
2023-04-25T07:00:02.834Z,2429.00
2023-04-25T07:01:02.872Z,2431.00
2023-04-25T07:02:02.888Z,2448.00
2023-04-25T07:03:03.030Z,2471.00
2023-04-25T07:04:03.202Z,2475.00
2023-04-25T07:05:02.839Z,2495.00
2023-04-25T07:06:02.952Z,2540.00
2023-04-25T07:07:02.839Z,2573.00
2023-04-25T07:08:03.779Z,2610.00
2023-04-25T07:09:02.803Z,2601.00
2023-04-25T07:10:02.821Z,2602.00
2023-04-25T07:11:02.795Z,2614.00
2023-04-25T07:12:02.825Z,2610.00
2023-04-25T07:13:03.181Z,2618.00
2023-04-25T07:14:02.875Z,2661.00
2023-04-25T07:15:02.768Z,2681.00
2023-04-25T07:16:03.723Z,2691.00
2023-04-25T07:17:03.054Z,2686.00
2023-04-25T07:18:03.793Z,2709.00
2023-04-25T07:19:02.759Z,2722.00
2023-04-25T07:20:02.764Z,2717.00
2023-04-25T07:21:02.839Z,2712.00
2023-04-25T07:22:02.906Z,2729.00
2023-04-25T07:23:02.912Z,2756.00
2023-04-25T07:24:02.980Z,2835.00
2023-04-25T07:25:03.026Z,2841.00
2023-04-25T07:26:03.121Z,2837.00
2023-04-25T07:27:03.151Z,2829.00
2023-04-25T07:28:03.219Z,2832.00
2023-04-25T07:29:03.276Z,2850.00
2023-04-25T07:30:03.378Z,2885.00
2023-04-25T07:31:03.428Z,2904.00
2023-04-25T07:32:03.624Z,2920.00
2023-04-25T07:33:03.707Z,3007.00
2023-04-25T07:34:03.574Z,3051.00
2023-04-25T07:35:03.654Z,3042.00
2023-04-25T07:36:04.199Z,2915.00
2023-04-25T07:37:04.673Z,2822.00
2023-04-25T07:38:04.231Z,2795.00
2023-04-25T07:39:03.824Z,2656.00
2023-04-25T07:40:03.912Z,2633.00
2023-04-25T07:41:04.181Z,2628.00
2023-04-25T07:42:04.048Z,2624.00
2023-04-25T07:43:04.119Z,2626.00
2023-04-25T07:44:04.136Z,2632.00
2023-04-25T07:45:04.254Z,2641.00
2023-04-25T07:46:04.406Z,2647.00
2023-04-25T07:47:04.590Z,2643.00
2023-04-25T07:48:04.760Z,2638.00
2023-04-25T07:49:04.473Z,2625.00
2023-04-25T07:50:04.562Z,2609.00
2023-04-25T07:51:04.558Z,2597.00
2023-04-25T07:52:04.598Z,2587.00
2023-04-25T07:53:05.237Z,2571.00
2023-04-25T07:54:04.769Z,2557.00
2023-04-25T07:55:04.739Z,2541.00
2023-04-25T07:56:04.766Z,2530.00
2023-04-25T07:57:04.786Z,2517.00
2023-04-25T07:58:04.868Z,2497.00
2023-04-25T07:59:05.224Z,2486.00
2023-04-25T08:00:05.006Z,2480.00
2023-04-25T08:01:04.940Z,2462.00
2023-04-25T08:02:04.934Z,2445.00
2023-04-25T08:03:05.250Z,2428.00
2023-04-25T08:04:05.164Z,2418.00
2023-04-25T08:05:05.268Z,2404.00
2023-04-25T08:06:07.949Z,2389.00
2023-04-25T08:07:05.094Z,2368.00
2023-04-25T08:08:05.234Z,2359.00
2023-04-25T08:09:05.727Z,2350.00
2023-04-25T08:10:05.701Z,2345.00
2023-04-25T08:11:05.207Z,2334.00
2023-04-25T08:12:04.965Z,2316.00
2023-04-25T08:13:05.694Z,2306.00
2023-04-25T08:14:05.000Z,2297.00
2023-04-25T08:15:05.018Z,2288.00
2023-04-25T08:16:05.296Z,2276.00
2023-04-25T08:17:05.011Z,2270.00
2023-04-25T08:18:05.043Z,2259.00
2023-04-25T08:19:05.152Z,2245.00
2023-04-25T08:20:05.723Z,2233.00
2023-04-25T08:21:04.925Z,2219.00
2023-04-25T08:22:04.892Z,2206.00
2023-04-25T08:23:04.864Z,2201.00
2023-04-25T08:24:04.928Z,2189.00
2023-04-25T08:25:04.861Z,2180.00
2023-04-25T08:26:04.954Z,2165.00
2023-04-25T08:27:04.840Z,2145.00
2023-04-25T08:28:04.849Z,2130.00
2023-04-25T08:29:05.308Z,2104.00
2023-04-25T08:30:04.890Z,2088.00
2023-04-25T08:31:04.865Z,2082.00
2023-04-25T08:32:04.890Z,2070.00
2023-04-25T08:33:04.935Z,2054.00
2023-04-25T08:34:04.876Z,2045.00
2023-04-25T08:35:04.796Z,2039.00
2023-04-25T08:36:04.866Z,2032.00
2023-04-25T08:37:04.825Z,2028.00
2023-04-25T08:38:04.840Z,2019.00
2023-04-25T08:39:05.348Z,2008.00
2023-04-25T08:40:04.883Z,1999.00
2023-04-25T08:41:04.778Z,2010.00
2023-04-25T08:42:04.772Z,1908.00
2023-04-25T08:43:05.701Z,1741.00
2023-04-25T08:44:05.201Z,1617.00
2023-04-25T08:45:07.079Z,1593.00
2023-04-25T08:46:04.883Z,1552.00
2023-04-25T08:47:05.016Z,1561.00
2023-04-25T08:48:05.796Z,1557.00
2023-04-25T08:49:04.977Z,1487.00
2023-04-25T08:50:04.861Z,1506.00
2023-04-25T08:51:05.214Z,1521.00
2023-04-25T08:52:04.902Z,1522.00
2023-04-25T08:53:04.910Z,1485.00
2023-04-25T08:54:10.209Z,1380.00
2023-04-25T08:55:05.954Z,1410.00
2023-04-25T08:56:04.966Z,1425.00
2023-04-25T08:57:05.166Z,1433.00
2023-04-25T08:58:05.706Z,1418.00
2023-04-25T08:59:05.221Z,1409.00
2023-04-25T09:00:05.215Z,1411.00
2023-04-25T09:01:05.202Z,1407.00
2023-04-25T09:02:05.156Z,1403.00
2023-04-25T09:03:05.245Z,1406.00
2023-04-25T09:04:05.416Z,1397.00
2023-04-25T09:05:05.083Z,1395.00
2023-04-25T09:06:05.112Z,1505.00
2023-04-25T09:07:05.230Z,1487.00
2023-04-25T09:08:05.171Z,1570.00
2023-04-25T09:09:05.528Z,1585.00
2023-04-25T09:10:05.363Z,1605.00
2023-04-25T09:11:05.345Z,1654.00
2023-04-25T09:12:05.482Z,1718.00
2023-04-25T09:13:05.503Z,1829.00
2023-04-25T09:14:05.593Z,1837.00
2023-04-25T09:15:05.579Z,1838.00
2023-04-25T09:16:05.676Z,1858.00
2023-04-25T09:17:06.193Z,1877.00
2023-04-25T09:18:05.785Z,1906.00
2023-04-25T09:19:05.868Z,1927.00
2023-04-25T09:20:05.906Z,1936.00
2023-04-25T09:21:12.993Z,1931.00
2023-04-25T09:22:06.994Z,1934.00
2023-04-25T09:23:05.891Z,1971.00
2023-04-25T09:24:05.882Z,1987.00
2023-04-25T09:25:05.857Z,1952.00
2023-04-25T09:26:05.986Z,1950.00
2023-04-25T09:27:05.891Z,1956.00
2023-04-25T09:28:06.039Z,1959.00
2023-04-25T09:29:05.865Z,1965.00
2023-04-25T09:30:05.998Z,1990.00
2023-04-25T09:31:05.838Z,2060.00
2023-04-25T09:32:14.402Z,2081.00
2023-04-25T09:33:05.998Z,2076.00
2023-04-25T09:34:06.091Z,1944.00
2023-04-25T09:35:05.856Z,1815.00
2023-04-25T09:36:05.853Z,1706.00
2023-04-25T09:37:06.251Z,1566.00
2023-04-25T09:38:06.785Z,1581.00
2023-04-25T09:39:06.754Z,1589.00
2023-04-25T09:40:05.827Z,1611.00
2023-04-25T09:41:05.852Z,1623.00
2023-04-25T09:42:05.804Z,1621.00
2023-04-25T09:43:05.782Z,1629.00
2023-04-25T09:44:05.840Z,1634.00
2023-04-25T09:45:05.746Z,1655.00
2023-04-25T09:46:06.310Z,1677.00
2023-04-25T09:47:06.239Z,1704.00
2023-04-25T09:48:07.819Z,1716.00
2023-04-25T09:49:06.276Z,1721.00
2023-04-25T09:50:06.880Z,1752.00
2023-04-25T09:51:05.930Z,1802.00
2023-04-25T09:52:06.306Z,1820.00
2023-04-25T09:53:06.027Z,1838.00
2023-04-25T09:54:06.755Z,1935.00
2023-04-25T09:55:06.166Z,1965.00
2023-04-25T09:56:06.177Z,1992.00
2023-04-25T09:57:06.356Z,2047.00
2023-04-25T09:58:06.407Z,2077.00
2023-04-25T09:59:06.796Z,2090.00
2023-04-25T10:00:06.525Z,2159.00
2023-04-25T10:01:06.451Z,2216.00
2023-04-25T10:02:06.471Z,2244.00
2023-04-25T10:03:07.355Z,2291.00
2023-04-25T10:04:06.864Z,2313.00
2023-04-25T10:05:06.681Z,2334.00
2023-04-25T10:06:06.707Z,2345.00
2023-04-25T10:07:08.245Z,2368.00
2023-04-25T10:08:06.769Z,2390.00
2023-04-25T10:09:06.769Z,2447.00
2023-04-25T10:10:06.828Z,2462.00
2023-04-25T10:11:06.883Z,2475.00
2023-04-25T10:12:06.911Z,2533.00
2023-04-25T10:13:06.977Z,2571.00
2023-04-25T10:14:06.970Z,2584.00
2023-04-25T10:15:07.034Z,2617.00
2023-04-25T10:16:07.164Z,2629.00
2023-04-25T10:17:07.082Z,2641.00
2023-04-25T10:18:07.148Z,2673.00
2023-04-25T10:19:07.784Z,2692.00
2023-04-25T10:20:07.170Z,2729.00
2023-04-25T10:21:07.196Z,2745.00
2023-04-25T10:22:07.316Z,2772.00
2023-04-25T10:23:07.273Z,2853.00
2023-04-25T10:24:07.355Z,2860.00
2023-04-25T10:25:07.283Z,2869.00
2023-04-25T10:26:07.327Z,2892.00
2023-04-25T10:27:08.289Z,2921.00
2023-04-25T10:28:07.364Z,3006.00
2023-04-25T10:29:07.476Z,3056.00
2023-04-25T10:30:07.476Z,3051.00
2023-04-25T10:31:07.558Z,3038.00
2023-04-25T10:32:09.451Z,3027.00
2023-04-25T10:33:07.351Z,2429.00
2023-04-25T10:34:07.372Z,2262.00
2023-04-25T10:35:07.400Z,1979.00
2023-04-25T10:36:07.411Z,1834.00
2023-04-25T10:37:07.631Z,1778.00
2023-04-25T10:38:07.447Z,1754.00
2023-04-25T10:39:07.485Z,1710.00
2023-04-25T10:40:08.308Z,1603.00
2023-04-25T10:41:07.510Z,1606.00
2023-04-25T10:42:07.627Z,1580.00
2023-04-25T10:43:07.559Z,1509.00
2023-04-25T10:44:07.550Z,1497.00
2023-04-25T10:45:07.627Z,1501.00
2023-04-25T10:46:07.753Z,1501.00
2023-04-25T10:47:07.803Z,1506.00
2023-04-25T10:48:07.721Z,1509.00
2023-04-25T10:49:07.701Z,1510.00
2023-04-25T10:50:07.936Z,1507.00
2023-04-25T10:51:07.912Z,1517.00
2023-04-25T10:52:07.774Z,1533.00
2023-04-25T10:53:07.780Z,1574.00
2023-04-25T10:54:07.896Z,1666.00
2023-04-25T10:55:07.919Z,1662.00
2023-04-25T10:56:09.624Z,1661.00
2023-04-25T10:57:08.050Z,1731.00
2023-04-25T10:58:08.127Z,1739.00
2023-04-25T10:59:08.172Z,1729.00
2023-04-25T11:00:08.150Z,1729.00
2023-04-25T11:01:08.223Z,1737.00
2023-04-25T11:02:08.276Z,1742.00
2023-04-25T11:03:08.428Z,1738.00
2023-04-25T11:04:08.682Z,1754.00
2023-04-25T11:05:08.283Z,1743.00
2023-04-25T11:06:08.365Z,1762.00
2023-04-25T11:07:08.655Z,1785.00
2023-04-25T11:08:08.589Z,1796.00
2023-04-25T11:09:08.485Z,1805.00
2023-04-25T11:10:09.325Z,1808.00
2023-04-25T11:11:08.577Z,1864.00
2023-04-25T11:12:09.279Z,1857.00
2023-04-25T11:13:08.550Z,1866.00
2023-04-25T11:14:08.574Z,1871.00
2023-04-25T11:15:08.822Z,1872.00
2023-04-25T11:16:12.883Z,1872.00
2023-04-25T11:17:08.673Z,1886.00
2023-04-25T11:18:08.701Z,1884.00
2023-04-25T11:19:08.627Z,1889.00
2023-04-25T11:20:08.741Z,1882.00
2023-04-25T11:21:08.598Z,1886.00
2023-04-25T11:22:08.626Z,1886.00
2023-04-25T11:23:08.634Z,1887.00
2023-04-25T11:24:08.868Z,1895.00
2023-04-25T11:25:08.723Z,1896.00
2023-04-25T11:26:08.595Z,1900.00
2023-04-25T11:27:08.817Z,1903.00
2023-04-25T11:28:08.581Z,1903.00
2023-04-25T11:29:08.551Z,1909.00
2023-04-25T11:30:08.570Z,1907.00
2023-04-25T11:31:08.538Z,1909.00
2023-04-25T11:32:09.337Z,1910.00
2023-04-25T11:33:08.576Z,1910.00
2023-04-25T11:34:08.651Z,1907.00
2023-04-25T11:35:08.666Z,1908.00
2023-04-25T11:36:08.739Z,1911.00
2023-04-25T11:37:08.742Z,1912.00
2023-04-25T11:38:08.768Z,1908.00
2023-04-25T11:39:08.808Z,1909.00
2023-04-25T11:40:08.859Z,1905.00
2023-04-25T11:41:08.881Z,1904.00
2023-04-25T11:42:11.171Z,1901.00
2023-04-25T11:43:09.938Z,1900.00
2023-04-25T11:44:08.936Z,1899.00
2023-04-25T11:45:08.905Z,1895.00
2023-04-25T11:46:09.160Z,1893.00
2023-04-25T11:47:08.989Z,1888.00
2023-04-25T11:48:08.929Z,1887.00
2023-04-25T11:49:08.873Z,1887.00
2023-04-25T11:50:08.894Z,1884.00
2023-04-25T11:51:08.862Z,1884.00
2023-04-25T11:52:08.880Z,1878.00
2023-04-25T11:53:08.859Z,1876.00
2023-04-25T11:54:08.862Z,1874.00
2023-04-25T11:55:09.730Z,1872.00
2023-04-25T11:56:09.872Z,1872.00
2023-04-25T11:57:08.978Z,1871.00
2023-04-25T11:58:09.042Z,1872.00
2023-04-25T11:59:09.263Z,1869.00
2023-04-25T12:00:09.182Z,1868.00
2023-04-25T12:01:09.347Z,1868.00
2023-04-25T12:02:09.216Z,1864.00
2023-04-25T12:03:09.651Z,1857.00
2023-04-25T12:04:09.521Z,1857.00
2023-04-25T12:05:29.460Z,1857.00
2023-04-25T12:06:10.508Z,1857.00
2023-04-25T12:07:09.367Z,1859.00
2023-04-25T12:08:09.386Z,1857.00
2023-04-25T12:09:09.353Z,1853.00
2023-04-25T12:10:12.401Z,1856.00
2023-04-25T12:11:09.500Z,1852.00
2023-04-25T12:12:09.301Z,1850.00
2023-04-25T12:13:09.445Z,1845.00
2023-04-25T12:14:09.301Z,1842.00
2023-04-25T12:15:09.319Z,1842.00
2023-04-25T12:16:09.511Z,1838.00
2023-04-25T12:17:09.571Z,1839.00